Time;durP1;ratioP1;P1;durP2;ratioP2;P2;SDS_P1;SDS_P2;PMS_P1;PMS_P2;Temp;Humidity;BMP_temperature;BMP_pressure;BME280_temperature;BME280_humidity;BME280_pressure;Samples;Min_cycle;Max_cycle;Signal;HPM_P1;HPM_P2
2022/09/02 00:02:30;;;;;;;3.53;1.00;;;;;;;20.51;32.78;99902.13;7605555;32;38873;-72
2022/09/02 00:06:48;;;;;;;0.95;0.70;;;;;;;20.21;34.18;99906.84;7630666;32;37049;-72
2022/09/02 00:11:05;;;;;;;2.37;1.05;;;;;;;20.27;33.25;99903.56;7631581;32;39427;-72
2022/09/02 00:15:21;;;;;;;1.60;0.98;;;;;;;20.41;33.12;99908.06;7631166;32;39931;-72
2022/09/02 00:19:38;;;;;;;1.70;0.80;;;;;;;20.39;33.07;99899.28;7631391;32;38745;-72
2022/09/02 00:23:54;;;;;;;3.17;1.12;;;;;;;20.41;32.60;99905.28;7630000;32;37832;-71
2022/09/02 00:28:11;;;;;;;4.80;1.20;;;;;;;20.21;33.40;99910.44;7631111;32;39278;-72
2022/09/02 00:32:28;;;;;;;2.78;0.95;;;;;;;20.29;32.74;99905.19;7628482;32;40066;-71
2022/09/02 00:36:44;;;;;;;1.40;0.80;;;;;;;20.08;32.24;99900.41;7605003;32;37869;-72
2022/09/02 00:41:02;;;;;;;1.67;1.10;;;;;;;20.05;33.30;99898.31;7604911;32;37298;-72
2022/09/02 00:45:20;;;;;;;2.97;1.00;;;;;;;20.26;32.07;99896.44;7605050;32;38246;-72
2022/09/02 00:49:41;;;;;;;3.60;0.95;;;;;;;20.13;32.46;99899.41;7604693;32;40035;-72
2022/09/02 00:53:58;;;;;;;2.72;1.00;;;;;;;20.11;32.87;99887.84;7604563;32;38053;-72
2022/09/02 00:58:19;;;;;;;2.33;0.90;;;;;;;20.25;33.31;99883.72;7604503;32;37013;-72
2022/09/02 01:02:37;;;;;;;1.98;0.95;;;;;;;20.02;32.54;99897.03;7604425;32;39524;-72
2022/09/02 01:06:53;;;;;;;2.47;0.95;;;;;;;19.88;33.39;99897.22;7577301;33;39901;-72
2022/09/02 01:11:10;;;;;;;2.67;1.00;;;;;;;20.01;32.00;99889.06;7577001;33;38019;-71
2022/09/02 01:15:26;;;;;;;2.97;1.00;;;;;;;19.86;31.94;99891.22;7578090;32;37011;-72
2022/09/02 01:19:46;;;;;;;2.00;1.08;;;;;;;19.63;32.86;99892.59;7603426;32;40525;-72
2022/09/02 01:24:03;;;;;;;1.42;0.88;;;;;;;19.88;32.70;99902.75;7603913;32;39765;-72
2022/09/02 01:28:19;;;;;;;3.30;0.90;;;;;;;19.87;32.14;99897.59;7603613;32;37859;-72
2022/09/02 01:32:35;;;;;;;2.42;1.15;;;;;;;19.74;32.70;99891.12;7604105;32;37930;-72
2022/09/02 01:36:51;;;;;;;2.80;1.10;;;;;;;19.76;32.57;99897.13;7603689;32;39354;-72
2022/09/02 01:41:07;;;;;;;2.83;1.10;;;;;;;19.58;33.14;99893.59;7603907;32;40922;-72
2022/09/02 01:45:24;;;;;;;2.47;1.17;;;;;;;19.43;33.85;99891.34;7607230;32;38020;-72
2022/09/02 01:49:40;;;;;;;1.25;0.70;;;;;;;19.70;32.16;99892.91;7607253;32;37141;-72
2022/09/02 01:53:57;;;;;;;2.10;1.00;;;;;;;19.16;33.49;99892.53;7607134;32;40066;-72
2022/09/02 01:58:13;;;;;;;1.42;0.70;;;;;;;19.23;33.58;99892.84;7607068;32;40155;-71
2022/09/02 02:02:29;;;;;;;2.22;1.33;;;;;;;19.20;34.14;99899.84;7606952;32;37840;-72
2022/09/02 02:06:47;;;;;;;2.72;0.73;;;;;;;19.30;33.48;99891.22;7628833;32;37373;-72
2022/09/02 02:11:08;;;;;;;1.12;0.80;;;;;;;19.36;34.23;99886.31;7620099;32;40318;-72
2022/09/02 02:15:25;;;;;;;1.83;0.82;;;;;;;19.24;34.29;99875.12;7628380;32;40816;-72
2022/09/02 02:19:40;;;;;;;2.22;1.00;;;;;;;19.14;34.20;99879.87;7607190;32;25884;-72
2022/09/02 02:24:00;;;;;;;4.40;0.80;;;;;;;19.10;35.87;99889.94;7606775;32;37071;-72
2022/09/02 02:28:16;;;;;;;2.58;0.85;;;;;;;19.03;34.69;99881.31;7606689;32;39415;-72
2022/09/02 02:32:33;;;;;;;2.20;0.90;;;;;;;18.91;36.93;99883.94;7606595;32;41221;-72
2022/09/02 02:36:50;;;;;;;1.02;0.90;;;;;;;18.90;34.68;99890.59;7627146;32;38657;-72
2022/09/02 02:41:08;;;;;;;1.12;0.73;;;;;;;18.91;34.27;99886.69;7632703;32;37687;-72
2022/09/02 02:45:24;;;;;;;3.83;1.30;;;;;;;18.72;35.22;99892.50;7632673;32;40465;-72
2022/09/02 02:49:42;;;;;;;0.85;0.80;;;;;;;18.85;35.48;99885.22;7632602;32;40580;-71
2022/09/02 02:54:00;;;;;;;0.82;0.70;;;;;;;18.77;35.99;99884.88;7631727;32;39764;-72
2022/09/02 02:58:16;;;;;;;0.88;0.70;;;;;;;18.65;36.12;99879.19;7632424;32;37783;-72
2022/09/02 03:02:33;;;;;;;0.90;0.90;;;;;;;18.60;35.68;99879.34;7632504;32;40520;-72
2022/09/02 03:06:49;;;;;;;4.05;1.30;;;;;;;18.54;36.42;99878.69;7588427;32;39953;-72
2022/09/02 03:11:06;;;;;;;2.58;1.00;;;;;;;18.59;35.37;99880.47;7606159;32;38807;-72
2022/09/02 03:15:23;;;;;;;1.20;0.80;;;;;;;18.53;35.02;99881.78;7606197;32;36828;-72
2022/09/02 03:19:39;;;;;;;1.55;0.93;;;;;;;18.68;35.21;99873.03;7606249;32;39284;-71
2022/09/02 03:23:56;;;;;;;1.30;0.82;;;;;;;18.79;35.55;99879.03;7606106;32;40704;-72
2022/09/02 03:28:13;;;;;;;2.50;0.98;;;;;;;18.57;36.98;99880.81;7605829;32;38008;-72
2022/09/02 03:32:29;;;;;;;3.75;1.05;;;;;;;18.67;36.68;99881.63;7606066;32;38035;-72
2022/09/02 03:36:46;;;;;;;3.37;0.90;;;;;;;18.65;36.41;99873.66;7628258;32;39278;-72
2022/09/02 03:41:02;;;;;;;1.25;0.68;;;;;;;18.56;36.47;99872.84;7631900;32;40717;-72
2022/09/02 03:45:19;;;;;;;2.50;1.00;;;;;;;18.69;35.52;99876.59;7631860;32;38564;-72
2022/09/02 03:49:35;;;;;;;2.95;0.82;;;;;;;18.71;35.74;99869.63;7631975;32;37765;-72
2022/09/02 03:53:51;;;;;;;4.43;1.02;;;;;;;18.51;36.02;99878.53;7631804;32;38887;-71
2022/09/02 03:58:07;;;;;;;1.42;0.82;;;;;;;18.54;35.95;99867.66;7631715;32;39959;-72
2022/09/02 04:02:25;;;;;;;0.85;0.70;;;;;;;18.65;35.67;99868.12;7631690;32;37947;-72
2022/09/02 04:06:41;;;;;;;1.40;1.05;;;;;;;18.55;36.42;99883.06;7605003;32;37786;-71
2022/09/02 04:10:57;;;;;;;2.78;0.98;;;;;;;18.65;36.18;99883.91;7605431;32;40040;-72
2022/09/02 04:15:14;;;;;;;2.95;1.10;;;;;;;18.71;35.58;99877.91;7605356;32;40054;-71
2022/09/02 04:19:30;;;;;;;1.60;0.80;;;;;;;18.47;38.89;99888.56;7605341;32;38865;-71
2022/09/02 04:23:46;;;;;;;2.55;1.10;;;;;;;18.52;38.24;99886.50;7605223;32;37230;-71
2022/09/02 04:28:02;;;;;;;3.10;1.00;;;;;;;18.47;37.78;99888.56;7605126;32;40147;-71
2022/09/02 04:32:20;;;;;;;2.72;0.93;;;;;;;18.53;36.99;99879.81;7605157;32;40626;-71
2022/09/02 04:36:36;;;;;;;1.65;0.80;;;;;;;18.38;37.69;99881.13;7628067;32;37887;-71
2022/09/02 04:40:52;;;;;;;1.37;0.80;;;;;;;18.54;36.43;99880.63;7630797;32;37622;-72
2022/09/02 04:45:09;;;;;;;1.12;0.80;;;;;;;18.19;38.13;99891.59;7631112;32;39103;-72
2022/09/02 04:49:26;;;;;;;1.62;1.00;;;;;;;18.34;37.05;99888.41;7630951;32;40745;-73
2022/09/02 04:53:43;;;;;;;1.42;1.08;;;;;;;18.36;38.12;99888.88;7630589;32;37809;-73
2022/09/02 04:57:59;;;;;;;1.77;0.90;;;;;;;18.36;37.69;99893.59;7630756;32;37329;-73
2022/09/02 05:02:15;;;;;;;3.25;0.85;;;;;;;18.54;37.74;99899.94;7630761;32;39323;-79
2022/09/02 05:06:32;;;;;;;2.67;1.10;;;;;;;18.46;40.29;99889.72;7591235;32;39888;-77
2022/09/02 05:10:49;;;;;;;2.85;0.80;;;;;;;18.76;44.04;99894.31;7608504;32;37919;-76
2022/09/02 05:15:06;;;;;;;1.55;1.00;;;;;;;18.94;39.54;99891.56;7615596;32;36994;-72
2022/09/02 05:19:24;;;;;;;0.75;0.75;;;;;;;18.89;40.18;99894.50;7619734;32;40196;-72
2022/09/02 05:23:41;;;;;;;4.35;1.08;;;;;;;19.03;36.89;99897.09;7633765;32;39022;-72
2022/09/02 05:27:57;;;;;;;1.60;0.90;;;;;;;19.01;38.04;99897.41;7632994;32;37931;-72
2022/09/02 05:32:13;;;;;;;3.17;1.10;;;;;;;19.01;37.46;99894.66;7633490;32;37132;-72
2022/09/02 05:36:31;;;;;;;2.20;0.80;;;;;;;18.94;39.21;99897.91;7609757;32;39390;-71
2022/09/02 05:40:47;;;;;;;0.65;0.62;;;;;;;19.15;37.10;99891.72;7607393;32;39949;-72
2022/09/02 05:45:04;;;;;;;2.00;0.73;;;;;;;19.07;38.05;99895.28;7607322;32;37960;-71
2022/09/02 05:49:21;;;;;;;2.00;0.90;;;;;;;19.09;38.12;99891.09;7607433;32;37149;-71
2022/09/02 05:53:37;;;;;;;1.98;0.90;;;;;;;19.20;38.42;99887.97;7607337;32;39272;-72
2022/09/02 05:57:54;;;;;;;3.03;0.93;;;;;;;19.41;38.02;99882.56;7607134;32;40819;-72
2022/09/02 06:02:12;;;;;;;3.75;0.70;;;;;;;19.51;37.40;99885.00;7607146;32;38614;-72
2022/09/02 06:06:29;;;;;;;1.58;0.68;;;;;;;19.50;36.82;99881.38;7629136;32;36188;-75
2022/09/02 06:10:45;;;;;;;6.15;0.80;;;;;;;19.43;37.41;99872.00;7633258;32;39331;-71
2022/09/02 06:15:02;;;;;;;4.95;1.00;;;;;;;19.50;37.15;99877.81;7622275;32;40706;-72
2022/09/02 06:19:18;;;;;;;2.47;0.90;;;;;;;19.61;37.31;99883.78;7629945;32;36258;-71
2022/09/02 06:23:37;;;;;;;5.28;1.17;;;;;;;19.76;37.50;99883.28;7608379;32;37283;-72
2022/09/02 06:27:53;;;;;;;3.25;0.75;;;;;;;19.70;38.11;99890.94;7608468;32;39175;-71
2022/09/02 06:32:09;;;;;;;0.75;0.60;;;;;;;19.59;37.48;99897.16;7628448;32;40765;-72
2022/09/02 06:36:27;;;;;;;1.27;0.68;;;;;;;19.74;36.58;99884.75;7632698;32;37430;-71
2022/09/02 06:40:50;;;;;;;4.53;0.77;;;;;;;19.92;36.48;99879.97;7632580;32;37083;-71
2022/09/02 06:45:07;;;;;;;1.65;0.88;;;;;;;20.12;37.61;99893.06;7623034;32;39365;-71
2022/09/02 06:49:24;;;;;;;1.87;0.80;;;;;;;20.22;38.62;99878.84;7627113;32;39955;-72
2022/09/02 06:53:40;;;;;;;2.45;0.70;;;;;;;20.43;39.01;99880.84;7618448;32;37729;-72
2022/09/02 06:57:56;;;;;;;1.10;0.70;;;;;;;20.34;38.52;99888.41;7606466;32;36850;-72
2022/09/02 07:02:13;;;;;;;6.00;0.93;;;;;;;20.56;36.45;99893.63;7602043;32;39107;-72
2022/09/02 07:06:35;;;;;;;0.70;0.70;;;;;;;20.77;36.37;99890.09;7624883;32;39899;-73
2022/09/02 07:10:51;;;;;;;2.78;0.82;;;;;;;21.04;33.25;99891.50;7615646;32;37887;-72
2022/09/02 07:15:08;;;;;;;0.95;0.60;;;;;;;20.89;34.88;99884.59;7632330;32;37056;-72
2022/09/02 07:19:25;;;;;;;2.83;0.70;;;;;;;20.99;32.73;99886.16;7632197;32;40004;-72
2022/09/02 07:23:41;;;;;;;2.12;0.75;;;;;;;21.31;33.01;99889.28;7631953;32;39894;-72
2022/09/02 07:27:57;;;;;;;2.58;1.00;;;;;;;21.42;32.43;99878.53;7631817;32;37869;-72
2022/09/02 07:32:16;;;;;;;1.73;0.77;;;;;;;21.58;31.94;99882.31;7632156;32;37033;-73
2022/09/02 07:36:33;;;;;;;1.17;0.70;;;;;;;21.69;34.58;99889.03;7618741;32;40311;-72
2022/09/02 07:40:50;;;;;;;1.50;0.50;;;;;;;22.04;31.47;99877.53;7617792;32;40046;-72
2022/09/02 07:45:12;;;;;;;0.73;0.70;;;;;;;22.34;31.49;99880.06;7620888;32;38064;-73
2022/09/02 07:49:28;;;;;;;1.10;0.70;;;;;;;22.35;31.19;99876.12;7630178;32;37261;-72
2022/09/02 07:54:05;;;;;;;6.12;0.90;;;;;;;22.41;30.75;99869.19;7631405;32;39714;-73
2022/09/02 07:58:22;;;;;;;6.60;1.00;;;;;;;22.60;31.29;99881.66;7631923;32;40039;-72
2022/09/02 08:02:39;;;;;;;2.47;0.90;;;;;;;22.77;31.15;99884.16;7628196;32;37737;-72
2022/09/02 08:06:55;;;;;;;0.65;0.60;;;;;;;22.87;30.56;99878.09;7631228;32;37260;-73
2022/09/02 08:11:12;;;;;;;1.20;0.60;;;;;;;23.21;30.19;99864.75;7631247;32;38737;-72
2022/09/02 08:15:29;;;;;;;1.48;0.77;;;;;;;23.31;30.89;99876.56;7621645;32;40165;-72
2022/09/02 08:19:46;;;;;;;1.67;0.80;;;;;;;23.28;29.46;99866.94;7627176;32;38659;-72
2022/09/02 08:24:02;;;;;;;0.98;0.88;;;;;;;23.61;30.06;99869.41;7618630;32;36989;-71
2022/09/02 08:28:19;;;;;;;0.70;0.70;;;;;;;23.63;30.38;99871.84;7615042;32;39159;-73
2022/09/02 08:32:36;;;;;;;1.37;0.90;;;;;;;23.68;30.41;99871.56;7621124;32;39883;-72
2022/09/02 08:36:52;;;;;;;1.35;0.80;;;;;;;23.56;31.32;99871.63;7625675;32;37968;-72
2022/09/02 08:41:24;;;;;;;2.22;0.93;;;;;;;23.56;29.40;99874.41;7616168;32;37125;-72
2022/09/02 08:45:42;;;;;;;2.42;0.80;;;;;;;23.90;30.24;99863.78;7613687;32;39198;-72
2022/09/02 08:50:13;;;;;;;2.03;1.00;;;;;;;23.86;30.45;99869.25;7581371;32;41592;-72
2022/09/02 08:54:31;;;;;;;1.62;1.08;;;;;;;23.90;29.40;99861.00;7621318;32;38732;-72
2022/09/02 08:58:51;;;;;;;1.80;0.90;;;;;;;24.01;29.54;99862.06;7619670;32;37091;-72
2022/09/02 09:03:22;;;;;;;1.58;0.90;;;;;;;24.14;30.09;99854.41;7601306;32;40105;-73
2022/09/02 09:08:04;;;;;;;1.50;0.80;;;;;;;24.16;30.34;99857.63;7605081;32;38855;-74
2022/09/02 09:12:59;;;;;;;1.40;1.00;;;;;;;24.45;31.53;99856.31;7585530;32;38697;-72
2022/09/02 09:17:38;;;;;;;5.12;0.95;;;;;;;24.68;30.84;99850.88;7607690;32;37264;-72
2022/09/02 09:21:55;;;;;;;0.98;0.82;;;;;;;24.85;30.07;99851.59;7604549;32;39373;-72
2022/09/02 09:26:15;;;;;;;2.85;0.82;;;;;;;25.23;28.70;99838.81;7590959;32;40606;-72
2022/09/02 09:30:31;;;;;;;6.28;1.00;;;;;;;25.32;29.68;99839.41;7604071;32;37504;-72
2022/09/02 09:35:01;;;;;;;5.70;0.80;;;;;;;25.88;28.73;99839.97;7582904;32;283742;-73
2022/09/02 09:39:23;;;;;;;2.95;0.82;;;;;;;26.07;27.45;99825.91;7607071;32;39068;-72
2022/09/02 09:43:40;;;;;;;2.17;0.90;;;;;;;26.20;27.31;99830.12;7607453;32;40236;-73
2022/09/02 09:48:15;;;;;;;2.25;1.00;;;;;;;26.07;28.55;99825.91;7607318;32;38504;-72
2022/09/02 09:52:31;;;;;;;4.93;0.82;;;;;;;26.48;26.26;99823.31;7605746;32;37066;-72
2022/09/02 09:56:47;;;;;;;1.60;0.80;;;;;;;25.66;26.72;99822.84;7607801;32;40147;-73
2022/09/02 10:01:22;;;;;;;3.92;1.00;;;;;;;26.14;27.98;99812.06;7612257;32;40159;-71
2022/09/02 10:05:39;;;;;;;1.55;0.98;;;;;;;26.23;29.87;99811.78;7629489;32;38684;-72
2022/09/02 10:10:15;;;;;;;1.87;1.02;;;;;;;26.61;26.60;99802.31;7619834;32;36610;-72
2022/09/02 10:14:35;;;;;;;2.12;1.00;;;;;;;26.83;27.45;99804.59;7633262;32;40086;-72
2022/09/02 10:19:23;;;;;;;1.45;1.10;;;;;;;26.00;27.77;99801.47;7616111;32;39970;-72
2022/09/02 10:23:54;;;;;;;2.62;1.12;;;;;;;26.42;29.06;99786.50;7603572;32;37942;-73
2022/09/02 10:28:14;;;;;;;4.25;1.30;;;;;;;27.05;27.01;99788.84;7611157;32;36778;-72
2022/09/02 10:32:43;;;;;;;2.47;1.02;;;;;;;27.68;25.46;99782.25;7632809;32;39456;-72
2022/09/02 10:37:25;;;;;;;4.70;1.20;;;;;;;27.90;26.41;99788.00;7632475;32;40824;-73
2022/09/02 10:41:47;;;;;;;3.90;1.23;;;;;;;28.18;24.38;99783.81;7631900;32;38543;-73
2022/09/02 10:46:07;;;;;;;1.62;0.95;;;;;;;28.52;24.28;99783.56;7632183;32;37957;-73
2022/09/02 10:50:36;;;;;;;6.32;1.20;;;;;;;28.73;24.04;99794.09;7616316;32;39407;-73
2022/09/02 10:55:12;;;;;;;5.78;1.55;;;;;;;28.88;23.41;99787.34;7615659;32;39724;-73
2022/09/02 10:59:47;;;;;;;3.92;1.25;;;;;;;29.02;24.16;99776.12;7629338;32;37885;-73
2022/09/02 11:04:36;;;;;;;1.80;1.20;;;;;;;27.94;24.25;99776.84;7620513;32;36928;-73
2022/09/02 11:08:59;;;;;;;3.15;1.12;;;;;;;28.27;24.06;99782.25;7619787;32;40587;-73
2022/09/02 11:13:23;;;;;;;2.80;1.20;;;;;;;28.49;22.63;99779.53;7632318;32;40862;-73
2022/09/02 11:18:20;;;;;;;2.00;0.93;;;;;;;28.31;23.86;99785.09;7632418;32;38722;-73
2022/09/02 11:23:05;;;;;;;1.73;0.90;;;;;;;28.51;22.74;99776.34;7631211;32;36919;-73
2022/09/02 11:27:35;;;;;;;2.40;1.20;;;;;;;28.67;22.70;99768.44;7619522;32;40118;-73
2022/09/02 11:32:05;;;;;;;1.52;1.12;;;;;;;28.13;25.46;99768.19;7631798;32;40570;-73
2022/09/02 11:36:22;;;;;;;3.10;1.40;;;;;;;28.58;24.23;99759.59;7632164;32;38031;-73
2022/09/02 11:40:54;;;;;;;3.62;1.20;;;;;;;28.41;24.78;99758.31;7632343;32;37212;-73
2022/09/02 11:45:55;;;;;;;4.15;1.30;;;;;;;28.19;24.02;99760.19;7631471;32;39824;-73
2022/09/02 11:50:41;;;;;;;3.07;1.47;;;;;;;28.91;24.35;99749.28;7620121;32;40895;-73
2022/09/02 11:55:07;;;;;;;1.33;1.05;;;;;;;28.80;25.13;99752.88;7619673;32;37890;-73
2022/09/02 11:59:52;;;;;;;4.00;1.20;;;;;;;28.93;24.75;99752.50;7619013;32;37070;-73
2022/09/02 12:04:11;;;;;;;2.67;1.15;;;;;;;28.73;25.57;99747.22;7628702;32;39069;-73
2022/09/02 12:08:48;;;;;;;5.90;1.40;;;;;;;28.87;24.24;99746.44;7631314;32;40320;-73
2022/09/02 12:13:06;;;;;;;2.35;1.40;;;;;;;28.70;23.93;99753.62;7631592;32;37715;-73
2022/09/02 12:17:42;;;;;;;2.00;1.25;;;;;;;28.70;24.06;99750.84;7631686;32;37337;-73
2022/09/02 12:22:17;;;;;;;1.92;1.12;;;;;;;28.33;25.29;99745.44;7631765;32;38641;-73
2022/09/02 12:26:39;;;;;;;2.40;1.23;;;;;;;28.11;24.25;99742.53;7630228;32;40839;-73
2022/09/02 12:30:57;;;;;;;2.27;1.67;;;;;;;28.57;23.36;99736.34;7631273;32;37967;-73
2022/09/02 12:35:38;;;;;;;3.78;1.10;;;;;;;28.33;25.08;99742.66;7631326;32;37826;-73
2022/09/02 12:39:57;;;;;;;3.60;1.15;;;;;;;28.41;24.51;99744.28;7631382;32;39221;-73
2022/09/02 12:44:45;;;;;;;4.12;1.42;;;;;;;28.57;24.71;99735.56;7631209;32;39420;-73
2022/09/02 12:49:27;;;;;;;6.12;1.35;;;;;;;28.39;24.97;99729.84;7629099;32;37932;-73
2022/09/02 12:53:49;;;;;;;1.75;1.30;;;;;;;28.21;25.05;99729.78;7630969;32;37877;-73
2022/09/02 12:58:10;;;;;;;4.00;1.60;;;;;;;28.15;24.05;99725.72;7630767;32;39317;-73
2022/09/02 13:02:29;;;;;;;3.05;1.35;;;;;;;28.11;23.91;99725.72;7630806;32;38886;-73
2022/09/02 13:06:57;;;;;;;5.20;1.50;;;;;;;28.16;24.52;99716.94;7630567;32;38684;-73
2022/09/02 13:11:34;;;;;;;2.30;1.50;;;;;;;27.63;24.28;99718.22;7630607;32;37861;-73
2022/09/02 13:16:02;;;;;;;3.62;1.37;;;;;;;27.65;23.87;99715.84;7630487;32;39367;-73
2022/09/02 13:20:38;;;;;;;1.70;1.25;;;;;;;27.73;25.93;99706.28;7630381;32;39853;-73
2022/09/02 13:25:35;;;;;;;5.03;1.55;;;;;;;27.63;24.87;99712.63;7630217;32;38507;-73
2022/09/02 13:30:17;;;;;;;2.72;1.37;;;;;;;27.68;26.44;99709.47;7618817;32;37771;-73
2022/09/02 13:34:33;;;;;;;2.90;1.37;;;;;;;27.95;23.33;99708.44;7617938;32;39301;-73
2022/09/02 13:38:49;;;;;;;1.55;1.27;;;;;;;28.68;23.71;99708.34;7625931;32;40660;-73
2022/09/02 13:43:12;;;;;;;1.50;1.10;;;;;;;29.32;22.96;99699.22;7633412;32;37912;-73
2022/09/02 13:47:28;;;;;;;7.50;1.50;;;;;;;29.88;23.76;99699.56;7633664;32;37345;-73
2022/09/02 13:51:46;;;;;;;1.23;0.98;;;;;;;30.31;22.54;99688.16;7633550;32;39368;-73
2022/09/02 13:56:05;;;;;;;2.72;1.50;;;;;;;30.62;21.73;99685.59;7633349;32;40120;-73
2022/09/02 14:00:47;;;;;;;2.40;1.27;;;;;;;31.08;21.29;99678.88;7633418;32;37864;-74
2022/09/02 14:05:12;;;;;;;2.30;1.30;;;;;;;31.20;21.41;99679.56;7632068;32;37236;-74
2022/09/02 14:09:31;;;;;;;2.80;1.52;;;;;;;31.78;21.22;99682.66;7633511;32;39135;-74
2022/09/02 14:13:49;;;;;;;10.93;1.60;;;;;;;31.97;19.56;99675.59;7620093;32;41141;-74
2022/09/02 14:18:19;;;;;;;4.68;1.55;;;;;;;31.63;20.15;99680.00;7619892;32;36801;-73
2022/09/02 14:22:35;;;;;;;3.08;1.23;;;;;;;30.64;21.06;99679.56;7633227;32;36971;-73
2022/09/02 14:26:54;;;;;;;2.17;1.40;;;;;;;31.24;21.04;99680.37;7633054;32;39431;-74
2022/09/02 14:31:25;;;;;;;2.97;1.70;;;;;;;31.21;21.94;99681.19;7622890;32;40720;-74
2022/09/02 14:35:54;;;;;;;2.67;1.48;;;;;;;31.23;21.18;99682.34;7631882;32;37901;-74
2022/09/02 14:40:10;;;;;;;3.78;1.62;;;;;;;31.56;21.14;99677.28;7631791;32;37752;-73
2022/09/02 14:44:34;;;;;;;7.60;2.30;;;;;;;30.83;19.99;99683.88;7633191;32;39379;-74
2022/09/02 14:48:58;;;;;;;3.40;1.40;;;;;;;30.25;21.25;99678.56;7631993;32;39751;-73
2022/09/02 14:53:20;;;;;;;6.00;1.83;;;;;;;29.51;23.22;99685.94;7632379;32;37952;-73
2022/09/02 14:57:37;;;;;;;4.30;1.95;;;;;;;29.00;23.17;99691.56;7632665;32;36940;-73
2022/09/02 15:01:56;;;;;;;2.65;1.60;;;;;;;28.96;23.12;99689.94;7632610;32;39399;-73
2022/09/02 15:06:12;;;;;;;3.72;1.70;;;;;;;28.60;24.17;99695.50;7632559;32;39006;-73
2022/09/02 15:10:30;;;;;;;2.35;1.52;;;;;;;28.51;23.28;99692.25;7632299;32;38096;-74
2022/09/02 15:14:46;;;;;;;4.47;1.62;;;;;;;28.44;25.00;99693.84;7631317;32;37964;-73
2022/09/02 15:19:02;;;;;;;3.35;1.50;;;;;;;28.61;24.67;99697.94;7632407;32;39269;-73
2022/09/02 15:23:18;;;;;;;3.60;1.77;;;;;;;28.24;24.67;99701.75;7632415;32;40741;-73
2022/09/02 15:27:36;;;;;;;2.37;1.33;;;;;;;27.96;25.92;99701.63;7632118;32;37691;-73
2022/09/02 15:31:53;;;;;;;5.93;1.55;;;;;;;27.76;25.91;99692.69;7631935;32;37109;-73
2022/09/02 15:36:12;;;;;;;3.78;1.48;;;;;;;27.35;25.74;99694.44;7632073;32;39848;-73
2022/09/02 15:40:30;;;;;;;4.28;1.37;;;;;;;26.97;26.92;99707.66;7632236;32;38880;-73
2022/09/02 15:44:46;;;;;;;2.22;1.58;;;;;;;27.03;26.95;99708.12;7615708;32;37663;-74
2022/09/02 15:49:11;;;;;;;5.03;1.92;;;;;;;26.75;28.26;99708.62;7606027;32;36988;-73
2022/09/02 15:53:27;;;;;;;7.62;1.92;;;;;;;26.76;27.26;99710.25;7605893;32;40091;-74
2022/09/02 15:57:44;;;;;;;6.93;2.70;;;;;;;26.63;28.38;99711.69;7597822;32;40045;-72
2022/09/02 16:02:01;;;;;;;5.05;2.10;;;;;;;26.43;27.84;99703.47;7586879;32;38779;-72
2022/09/02 16:06:17;;;;;;;3.08;1.60;;;;;;;26.31;29.47;99712.09;7587975;32;36972;-72
2022/09/02 16:10:35;;;;;;;2.40;1.62;;;;;;;26.18;29.43;99709.56;7586757;32;39042;-72
2022/09/02 16:14:51;;;;;;;2.17;1.70;;;;;;;26.26;29.74;99713.22;7584648;32;38956;-73
2022/09/02 16:19:08;;;;;;;3.95;1.98;;;;;;;26.21;30.49;99713.56;7587490;32;37657;-74
2022/09/02 16:23:24;;;;;;;4.75;2.10;;;;;;;26.23;29.78;99716.78;7586958;32;36846;-72
2022/09/02 16:27:54;;;;;;;3.12;1.55;;;;;;;26.24;29.63;99713.63;7586631;32;39954;-73
2022/09/02 16:32:11;;;;;;;2.70;1.40;;;;;;;26.15;30.16;99721.50;7585577;32;40758;-73
2022/09/02 16:36:44;;;;;;;4.23;1.77;;;;;;;26.15;31.06;99709.53;7589389;32;37454;-73
2022/09/02 16:41:01;;;;;;;3.75;2.10;;;;;;;25.64;33.33;99719.94;7586610;32;37068;-71
2022/09/02 16:45:18;;;;;;;5.07;2.47;;;;;;;25.15;32.69;99731.88;7591098;32;39714;-72
2022/09/02 16:49:34;;;;;;;4.20;2.05;;;;;;;24.53;33.91;99735.47;7585865;32;40714;-72
2022/09/02 16:53:55;;;;;;;5.93;2.08;;;;;;;24.41;35.74;99743.19;7583999;32;38619;-71
2022/09/02 16:58:13;;;;;;;6.20;2.05;;;;;;;24.25;35.19;99743.25;7585242;32;37139;-72
2022/09/02 17:02:29;;;;;;;4.75;1.92;;;;;;;23.94;35.64;99747.75;7598314;32;39915;-71
2022/09/02 17:06:45;;;;;;;5.87;2.42;;;;;;;23.75;36.32;99756.81;7618165;32;40832;-72
2022/09/02 17:11:22;;;;;;;3.75;2.10;;;;;;;23.27;37.72;99758.81;7630539;32;37853;-71
2022/09/02 17:15:38;;;;;;;6.75;2.30;;;;;;;23.58;36.64;99755.25;7613768;32;37083;-72
2022/09/02 17:19:54;;;;;;;4.03;1.77;;;;;;;23.37;37.31;99752.72;7599001;32;40360;-71
2022/09/02 17:24:12;;;;;;;7.95;2.28;;;;;;;23.30;37.97;99752.53;7610200;32;39942;-72
2022/09/02 17:28:28;;;;;;;4.10;2.15;;;;;;;23.17;38.61;99760.97;7607356;32;37930;-71
2022/09/02 17:32:44;;;;;;;6.72;2.17;;;;;;;23.14;38.25;99766.44;7629794;32;37773;-71
2022/09/02 17:37:03;;;;;;;7.90;2.15;;;;;;;22.98;39.07;99761.66;7608821;32;38216;-71
2022/09/02 17:46:05;;;;;;;6.30;2.60;;;;;;;22.84;39.03;99764.03;7620640;32;38597;-72
2022/09/02 17:50:22;;;;;;;6.53;1.98;;;;;;;23.00;39.00;99766.84;7623567;32;37886;-72
2022/09/02 17:54:39;;;;;;;5.35;2.10;;;;;;;22.62;38.85;99769.00;7632373;32;39973;-71
2022/09/02 17:59:17;;;;;;;7.12;2.40;;;;;;;22.67;40.19;99777.06;7633055;32;40866;-70
2022/09/02 18:03:54;;;;;;;5.75;2.28;;;;;;;22.44;41.64;99785.16;7610856;32;37873;-74
2022/09/02 18:08:15;;;;;;;4.95;2.30;;;;;;;22.48;41.37;99783.28;7603167;32;38031;-75
2022/09/02 18:12:35;;;;;;;3.47;2.10;;;;;;;22.56;41.08;99794.59;7606070;32;39559;-72
2022/09/02 18:17:17;;;;;;;10.77;2.08;;;;;;;22.61;41.15;99792.41;7615574;32;40907;-71
2022/09/02 18:21:46;;;;;;;5.03;2.10;;;;;;;22.60;40.93;99795.53;7587141;32;38464;-71
2022/09/02 18:26:44;;;;;;;5.72;2.58;;;;;;;22.15;40.51;99802.09;7586973;32;37560;-71
2022/09/02 18:31:22;;;;;;;8.27;2.20;;;;;;;22.32;41.49;99807.41;7521923;32;38995;-72
2022/09/02 18:36:03;;;;;;;5.60;2.17;;;;;;;22.08;41.87;99811.00;7580091;32;40751;-71
2022/09/02 18:40:42;;;;;;;5.20;2.15;;;;;;;21.88;42.56;99813.56;7583507;32;37969;-71
2022/09/02 18:45:16;;;;;;;4.35;2.40;;;;;;;21.66;43.51;99816.78;7615485;32;36969;-71
2022/09/02 18:49:38;;;;;;;7.55;2.10;;;;;;;21.72;43.25;99821.75;7619448;32;39171;-70
2022/09/02 18:53:59;;;;;;;11.00;2.20;;;;;;;21.67;42.28;99821.19;7590014;32;38889;-70
2022/09/02 18:58:56;;;;;;;5.95;2.12;;;;;;;21.68;43.49;99814.47;7606282;32;37923;-69
2022/09/02 19:03:12;;;;;;;7.45;2.45;;;;;;;21.60;43.45;99821.75;7586111;32;37851;-70
2022/09/02 19:12:05;;;;;;;3.67;2.08;;;;;;;21.25;44.40;99824.09;7608030;32;39944;-70
2022/09/02 19:16:41;;;;;;;7.37;2.42;;;;;;;21.20;44.51;99830.69;7632365;32;37919;-72
2022/09/02 19:20:57;;;;;;;6.12;2.40;;;;;;;20.80;45.78;99832.03;7632568;32;37919;-71
2022/09/02 19:25:18;;;;;;;4.45;2.05;;;;;;;20.79;45.66;99829.59;7630694;32;40104;-71
2022/09/02 19:29:38;;;;;;;7.20;2.22;;;;;;;20.86;45.37;99829.84;7616284;32;39879;-71
2022/09/02 19:33:56;;;;;;;7.00;2.47;;;;;;;20.70;45.93;99837.19;7604339;32;38673;-72
2022/09/02 19:38:16;;;;;;;4.30;2.28;;;;;;;20.60;46.08;99847.47;7630287;32;37246;-72
2022/09/02 19:42:33;;;;;;;5.62;1.92;;;;;;;20.36;46.82;99845.38;7579983;33;39355;-71
2022/09/02 19:46:50;;;;;;;5.62;2.45;;;;;;;20.35;46.68;99848.47;7598250;32;40797;-70
2022/09/02 19:51:30;;;;;;;7.72;2.70;;;;;;;20.53;46.28;99836.13;7611399;32;38243;-70
2022/09/02 19:55:49;;;;;;;5.75;1.98;;;;;;;20.52;45.98;99834.50;7620668;32;37833;-70
2022/09/02 20:00:07;;;;;;;4.90;2.62;;;;;;;20.56;45.86;99829.94;7621541;32;38436;-71
2022/09/02 20:04:23;;;;;;;7.80;2.37;;;;;;;20.45;46.36;99837.00;7603926;32;39672;-71
2022/09/02 20:08:44;;;;;;;4.18;1.90;;;;;;;20.50;46.25;99841.53;7601770;32;37959;-70
2022/09/02 20:13:00;;;;;;;8.57;2.30;;;;;;;20.19;46.70;99843.53;7604924;32;37249;-71
2022/09/02 20:17:20;;;;;;;6.53;2.30;;;;;;;20.21;46.67;99844.03;7621620;32;39314;-70
2022/09/02 20:21:42;;;;;;;6.47;2.47;;;;;;;20.15;46.75;99839.81;7609209;32;39992;-71
2022/09/02 20:26:22;;;;;;;4.43;2.37;;;;;;;20.01;46.86;99839.25;7617296;32;38609;-70
2022/09/02 20:30:42;;;;;;;6.18;2.17;;;;;;;19.85;47.39;99842.59;7631327;32;38235;-71
2022/09/02 20:35:24;;;;;;;6.10;2.72;;;;;;;19.32;48.75;99853.00;7605302;32;39924;-71
2022/09/02 20:39:52;;;;;;;5.47;2.50;;;;;;;19.42;48.95;99857.38;7631147;32;40203;-70
2022/09/02 20:44:15;;;;;;;5.15;2.50;;;;;;;19.39;49.78;99855.25;7627028;32;37892;-71